sensor_id;sensor_type;location;lat;lon;timestamp;temperature;humidity
19930;DHT22;10127;47.780;9.606;2023-08-06T00:00:06;16.00;99.90
19930;DHT22;10127;47.780;9.606;2023-08-06T00:02:32;16.00;99.90
19930;DHT22;10127;47.780;9.606;2023-08-06T00:04:57;15.90;99.90
19930;DHT22;10127;47.780;9.606;2023-08-06T00:07:23;15.90;99.90
19930;DHT22;10127;47.780;9.606;2023-08-06T00:09:49;15.90;99.90
19930;DHT22;10127;47.780;9.606;2023-08-06T00:12:14;15.90;99.90
19930;DHT22;10127;47.780;9.606;2023-08-06T00:14:40;16.00;99.90
19930;DHT22;10127;47.780;9.606;2023-08-06T00:17:05;15.90;99.90
19930;DHT22;10127;47.780;9.606;2023-08-06T00:19:32;15.90;99.90
19930;DHT22;10127;47.780;9.606;2023-08-06T00:21:57;16.00;99.90
19930;DHT22;10127;47.780;9.606;2023-08-06T00:24:23;16.00;99.90
19930;DHT22;10127;47.780;9.606;2023-08-06T00:26:49;15.90;99.90
19930;DHT22;10127;47.780;9.606;2023-08-06T00:29:14;15.90;99.90
19930;DHT22;10127;47.780;9.606;2023-08-06T00:31:40;15.70;99.90
19930;DHT22;10127;47.780;9.606;2023-08-06T00:34:05;15.70;99.90
19930;DHT22;10127;47.780;9.606;2023-08-06T00:36:31;15.70;99.90
19930;DHT22;10127;47.780;9.606;2023-08-06T00:38:57;15.60;99.90
19930;DHT22;10127;47.780;9.606;2023-08-06T00:41:22;15.60;99.90
19930;DHT22;10127;47.780;9.606;2023-08-06T00:43:48;15.60;99.90
19930;DHT22;10127;47.780;9.606;2023-08-06T00:46:14;15.60;99.90
19930;DHT22;10127;47.780;9.606;2023-08-06T00:48:40;15.60;99.90
19930;DHT22;10127;47.780;9.606;2023-08-06T00:51:06;15.60;99.90
19930;DHT22;10127;47.780;9.606;2023-08-06T00:53:32;15.60;99.90
19930;DHT22;10127;47.780;9.606;2023-08-06T00:55:58;15.60;99.90
19930;DHT22;10127;47.780;9.606;2023-08-06T00:58:25;15.60;99.90
19930;DHT22;10127;47.780;9.606;2023-08-06T01:00:50;15.70;99.90
19930;DHT22;10127;47.780;9.606;2023-08-06T01:03:16;15.70;99.90
19930;DHT22;10127;47.780;9.606;2023-08-06T01:05:41;15.70;99.90
19930;DHT22;10127;47.780;9.606;2023-08-06T01:08:28;15.70;99.90
19930;DHT22;10127;47.780;9.606;2023-08-06T01:11:30;15.60;99.90
19930;DHT22;10127;47.780;9.606;2023-08-06T01:14:23;15.60;99.90
19930;DHT22;10127;47.780;9.606;2023-08-06T01:16:51;15.50;99.90
19930;DHT22;10127;47.780;9.606;2023-08-06T01:19:20;15.40;99.90
19930;DHT22;10127;47.780;9.606;2023-08-06T01:21:46;15.40;99.90
19930;DHT22;10127;47.780;9.606;2023-08-06T01:24:12;15.40;99.90
19930;DHT22;10127;47.780;9.606;2023-08-06T01:26:48;15.30;99.90
19930;DHT22;10127;47.780;9.606;2023-08-06T01:29:25;15.20;99.90
19930;DHT22;10127;47.780;9.606;2023-08-06T01:31:54;15.20;99.90
19930;DHT22;10127;47.780;9.606;2023-08-06T01:34:24;15.20;99.90
19930;DHT22;10127;47.780;9.606;2023-08-06T01:36:50;15.20;99.90
19930;DHT22;10127;47.780;9.606;2023-08-06T01:39:16;15.20;99.90
19930;DHT22;10127;47.780;9.606;2023-08-06T01:41:42;15.20;99.90
19930;DHT22;10127;47.780;9.606;2023-08-06T01:44:07;15.10;99.90
19930;DHT22;10127;47.780;9.606;2023-08-06T01:46:33;15.10;99.90
19930;DHT22;10127;47.780;9.606;2023-08-06T01:48:58;15.10;99.90
19930;DHT22;10127;47.780;9.606;2023-08-06T01:51:24;15.00;99.90
19930;DHT22;10127;47.780;9.606;2023-08-06T01:54:03;15.00;99.90
19930;DHT22;10127;47.780;9.606;2023-08-06T01:56:29;15.00;99.90
19930;DHT22;10127;47.780;9.606;2023-08-06T01:58:54;15.00;99.90
19930;DHT22;10127;47.780;9.606;2023-08-06T02:01:20;14.90;99.90
19930;DHT22;10127;47.780;9.606;2023-08-06T02:03:45;14.90;99.90
19930;DHT22;10127;47.780;9.606;2023-08-06T02:06:11;14.90;99.90
19930;DHT22;10127;47.780;9.606;2023-08-06T02:08:37;14.80;99.90
19930;DHT22;10127;47.780;9.606;2023-08-06T02:11:02;14.80;99.90
19930;DHT22;10127;47.780;9.606;2023-08-06T02:13:28;14.80;99.90
19930;DHT22;10127;47.780;9.606;2023-08-06T02:15:54;14.70;99.90
19930;DHT22;10127;47.780;9.606;2023-08-06T02:18:19;14.70;99.90
19930;DHT22;10127;47.780;9.606;2023-08-06T02:20:57;14.70;99.90
19930;DHT22;10127;47.780;9.606;2023-08-06T02:23:24;14.70;99.90
19930;DHT22;10127;47.780;9.606;2023-08-06T02:25:57;14.70;99.90
19930;DHT22;10127;47.780;9.606;2023-08-06T02:28:23;14.70;99.90
19930;DHT22;10127;47.780;9.606;2023-08-06T02:30:52;14.70;99.90
19930;DHT22;10127;47.780;9.606;2023-08-06T02:33:18;14.60;99.90
19930;DHT22;10127;47.780;9.606;2023-08-06T02:35:43;14.70;99.90
19930;DHT22;10127;47.780;9.606;2023-08-06T02:38:09;14.60;99.90
19930;DHT22;10127;47.780;9.606;2023-08-06T02:40:45;14.60;99.90
19930;DHT22;10127;47.780;9.606;2023-08-06T02:43:17;14.60;99.90
19930;DHT22;10127;47.780;9.606;2023-08-06T02:45:43;14.60;99.90
19930;DHT22;10127;47.780;9.606;2023-08-06T02:48:09;14.70;99.90
19930;DHT22;10127;47.780;9.606;2023-08-06T02:50:41;14.60;99.90
19930;DHT22;10127;47.780;9.606;2023-08-06T02:53:08;14.60;99.90
19930;DHT22;10127;47.780;9.606;2023-08-06T02:55:34;14.70;99.90
19930;DHT22;10127;47.780;9.606;2023-08-06T02:58:01;14.70;99.90
19930;DHT22;10127;47.780;9.606;2023-08-06T03:00:27;14.80;99.90
19930;DHT22;10127;47.780;9.606;2023-08-06T03:02:53;14.70;99.90
19930;DHT22;10127;47.780;9.606;2023-08-06T03:05:18;14.70;99.90
19930;DHT22;10127;47.780;9.606;2023-08-06T03:07:44;14.80;99.90
19930;DHT22;10127;47.780;9.606;2023-08-06T03:10:10;14.70;99.90
19930;DHT22;10127;47.780;9.606;2023-08-06T03:12:35;14.70;99.90
19930;DHT22;10127;47.780;9.606;2023-08-06T03:15:01;14.70;99.90
19930;DHT22;10127;47.780;9.606;2023-08-06T03:17:26;14.80;99.90
19930;DHT22;10127;47.780;9.606;2023-08-06T03:19:52;14.80;99.90
19930;DHT22;10127;47.780;9.606;2023-08-06T03:22:18;14.80;99.90
19930;DHT22;10127;47.780;9.606;2023-08-06T03:24:43;14.70;99.90
19930;DHT22;10127;47.780;9.606;2023-08-06T03:27:09;14.60;99.90
19930;DHT22;10127;47.780;9.606;2023-08-06T03:29:34;14.60;99.90
19930;DHT22;10127;47.780;9.606;2023-08-06T03:32:00;14.60;99.90
19930;DHT22;10127;47.780;9.606;2023-08-06T03:34:25;14.50;99.90
19930;DHT22;10127;47.780;9.606;2023-08-06T03:36:51;14.50;99.90
19930;DHT22;10127;47.780;9.606;2023-08-06T03:39:17;14.60;99.90
19930;DHT22;10127;47.780;9.606;2023-08-06T03:41:42;14.70;99.90
19930;DHT22;10127;47.780;9.606;2023-08-06T03:44:08;14.70;99.90
19930;DHT22;10127;47.780;9.606;2023-08-06T03:46:33;14.70;99.90
19930;DHT22;10127;47.780;9.606;2023-08-06T03:49:02;14.70;99.90
19930;DHT22;10127;47.780;9.606;2023-08-06T03:51:28;14.70;99.90
19930;DHT22;10127;47.780;9.606;2023-08-06T03:53:53;14.60;99.90
19930;DHT22;10127;47.780;9.606;2023-08-06T03:56:19;14.60;99.90
19930;DHT22;10127;47.780;9.606;2023-08-06T03:58:44;14.70;99.90
19930;DHT22;10127;47.780;9.606;2023-08-06T04:01:10;14.70;99.90
19930;DHT22;10127;47.780;9.606;2023-08-06T04:03:35;14.70;99.90
19930;DHT22;10127;47.780;9.606;2023-08-06T04:06:04;14.70;99.90
19930;DHT22;10127;47.780;9.606;2023-08-06T04:08:30;14.80;99.90
19930;DHT22;10127;47.780;9.606;2023-08-06T04:10:55;14.70;99.90
19930;DHT22;10127;47.780;9.606;2023-08-06T04:13:21;14.80;99.90
19930;DHT22;10127;47.780;9.606;2023-08-06T04:15:46;14.80;99.90
19930;DHT22;10127;47.780;9.606;2023-08-06T04:18:13;14.90;99.90
19930;DHT22;10127;47.780;9.606;2023-08-06T04:20:46;14.80;99.90
19930;DHT22;10127;47.780;9.606;2023-08-06T04:23:12;14.80;99.90
19930;DHT22;10127;47.780;9.606;2023-08-06T04:25:38;14.80;99.90
19930;DHT22;10127;47.780;9.606;2023-08-06T04:28:03;14.80;99.90
19930;DHT22;10127;47.780;9.606;2023-08-06T04:30:29;14.80;99.90
19930;DHT22;10127;47.780;9.606;2023-08-06T04:32:56;14.80;99.90
19930;DHT22;10127;47.780;9.606;2023-08-06T04:35:23;14.80;99.90
19930;DHT22;10127;47.780;9.606;2023-08-06T04:37:48;14.70;99.90
19930;DHT22;10127;47.780;9.606;2023-08-06T04:40:14;14.70;99.90
19930;DHT22;10127;47.780;9.606;2023-08-06T04:42:39;14.80;99.90
19930;DHT22;10127;47.780;9.606;2023-08-06T04:45:06;14.90;99.90
19930;DHT22;10127;47.780;9.606;2023-08-06T04:47:31;14.90;99.90
19930;DHT22;10127;47.780;9.606;2023-08-06T04:49:57;15.00;99.90
19930;DHT22;10127;47.780;9.606;2023-08-06T04:52:23;15.10;99.90
19930;DHT22;10127;47.780;9.606;2023-08-06T04:54:48;15.20;99.90
19930;DHT22;10127;47.780;9.606;2023-08-06T04:57:14;15.20;99.90
19930;DHT22;10127;47.780;9.606;2023-08-06T04:59:39;15.30;99.90
19930;DHT22;10127;47.780;9.606;2023-08-06T05:02:05;15.30;99.90
19930;DHT22;10127;47.780;9.606;2023-08-06T05:04:31;15.30;99.90
19930;DHT22;10127;47.780;9.606;2023-08-06T05:06:56;15.30;99.90
19930;DHT22;10127;47.780;9.606;2023-08-06T05:09:22;15.40;99.90
19930;DHT22;10127;47.780;9.606;2023-08-06T05:11:47;15.40;99.90
19930;DHT22;10127;47.780;9.606;2023-08-06T05:14:13;15.40;99.90
19930;DHT22;10127;47.780;9.606;2023-08-06T05:16:39;15.40;99.90
19930;DHT22;10127;47.780;9.606;2023-08-06T05:19:04;15.40;99.90
19930;DHT22;10127;47.780;9.606;2023-08-06T05:21:30;15.40;99.90
19930;DHT22;10127;47.780;9.606;2023-08-06T05:23:56;15.40;99.90
19930;DHT22;10127;47.780;9.606;2023-08-06T05:26:21;15.40;99.90
19930;DHT22;10127;47.780;9.606;2023-08-06T05:28:47;15.30;99.90
19930;DHT22;10127;47.780;9.606;2023-08-06T05:31:12;15.30;99.90
19930;DHT22;10127;47.780;9.606;2023-08-06T05:33:38;15.30;99.90
19930;DHT22;10127;47.780;9.606;2023-08-06T05:36:04;15.30;99.90
19930;DHT22;10127;47.780;9.606;2023-08-06T05:38:30;15.30;99.90
19930;DHT22;10127;47.780;9.606;2023-08-06T05:40:55;15.30;99.90
19930;DHT22;10127;47.780;9.606;2023-08-06T05:43:22;15.20;99.90
19930;DHT22;10127;47.780;9.606;2023-08-06T05:45:49;15.20;99.90
19930;DHT22;10127;47.780;9.606;2023-08-06T05:48:15;15.30;99.90
19930;DHT22;10127;47.780;9.606;2023-08-06T05:50:41;15.30;99.90
19930;DHT22;10127;47.780;9.606;2023-08-06T05:53:07;15.30;99.90
19930;DHT22;10127;47.780;9.606;2023-08-06T05:55:33;15.30;99.90
19930;DHT22;10127;47.780;9.606;2023-08-06T05:57:59;15.20;99.90
19930;DHT22;10127;47.780;9.606;2023-08-06T06:00:24;15.20;99.90
19930;DHT22;10127;47.780;9.606;2023-08-06T06:02:50;15.20;99.90
19930;DHT22;10127;47.780;9.606;2023-08-06T06:05:15;15.20;99.90
19930;DHT22;10127;47.780;9.606;2023-08-06T06:07:41;15.30;99.90
19930;DHT22;10127;47.780;9.606;2023-08-06T06:10:07;15.40;99.90
19930;DHT22;10127;47.780;9.606;2023-08-06T06:12:33;15.50;99.90
19930;DHT22;10127;47.780;9.606;2023-08-06T06:14:58;15.50;99.90
19930;DHT22;10127;47.780;9.606;2023-08-06T06:17:26;15.40;99.90
19930;DHT22;10127;47.780;9.606;2023-08-06T06:19:52;15.30;99.90
19930;DHT22;10127;47.780;9.606;2023-08-06T06:22:18;15.10;99.90
19930;DHT22;10127;47.780;9.606;2023-08-06T06:24:43;15.10;99.90
19930;DHT22;10127;47.780;9.606;2023-08-06T06:27:09;14.90;99.90
19930;DHT22;10127;47.780;9.606;2023-08-06T06:29:34;14.90;99.90
19930;DHT22;10127;47.780;9.606;2023-08-06T06:32:00;14.90;99.90
19930;DHT22;10127;47.780;9.606;2023-08-06T06:34:25;14.90;99.90
19930;DHT22;10127;47.780;9.606;2023-08-06T06:36:51;14.90;99.90
19930;DHT22;10127;47.780;9.606;2023-08-06T06:39:17;14.80;99.90
19930;DHT22;10127;47.780;9.606;2023-08-06T06:41:43;14.70;99.90
19930;DHT22;10127;47.780;9.606;2023-08-06T06:44:09;14.70;99.90
19930;DHT22;10127;47.780;9.606;2023-08-06T06:46:35;14.80;99.90
19930;DHT22;10127;47.780;9.606;2023-08-06T06:49:00;15.00;99.90
19930;DHT22;10127;47.780;9.606;2023-08-06T06:51:26;15.30;99.90
19930;DHT22;10127;47.780;9.606;2023-08-06T06:53:52;15.40;99.90
19930;DHT22;10127;47.780;9.606;2023-08-06T06:56:17;15.40;99.90
19930;DHT22;10127;47.780;9.606;2023-08-06T06:58:43;15.50;99.90
19930;DHT22;10127;47.780;9.606;2023-08-06T07:01:09;15.70;99.90
19930;DHT22;10127;47.780;9.606;2023-08-06T07:03:37;15.80;99.90
19930;DHT22;10127;47.780;9.606;2023-08-06T07:06:02;15.80;99.90
19930;DHT22;10127;47.780;9.606;2023-08-06T07:08:29;15.80;99.90
19930;DHT22;10127;47.780;9.606;2023-08-06T07:11:04;15.80;99.90
19930;DHT22;10127;47.780;9.606;2023-08-06T07:13:31;15.90;99.90
19930;DHT22;10127;47.780;9.606;2023-08-06T07:15:57;15.90;99.90
19930;DHT22;10127;47.780;9.606;2023-08-06T07:18:23;15.80;99.90
19930;DHT22;10127;47.780;9.606;2023-08-06T07:20:53;15.90;99.90
19930;DHT22;10127;47.780;9.606;2023-08-06T07:23:24;15.90;99.90
19930;DHT22;10127;47.780;9.606;2023-08-06T07:25:50;15.80;99.90
19930;DHT22;10127;47.780;9.606;2023-08-06T07:28:16;15.80;99.90
19930;DHT22;10127;47.780;9.606;2023-08-06T07:30:43;15.80;99.90
19930;DHT22;10127;47.780;9.606;2023-08-06T07:33:09;15.60;99.90
19930;DHT22;10127;47.780;9.606;2023-08-06T07:35:35;15.50;99.90
19930;DHT22;10127;47.780;9.606;2023-08-06T07:38:01;15.50;99.90
19930;DHT22;10127;47.780;9.606;2023-08-06T07:40:27;15.60;99.90
19930;DHT22;10127;47.780;9.606;2023-08-06T07:42:53;15.60;99.90
19930;DHT22;10127;47.780;9.606;2023-08-06T07:45:19;15.60;99.90
19930;DHT22;10127;47.780;9.606;2023-08-06T07:47:45;15.40;99.90
19930;DHT22;10127;47.780;9.606;2023-08-06T07:50:10;15.50;99.90
19930;DHT22;10127;47.780;9.606;2023-08-06T07:52:36;15.60;99.90
19930;DHT22;10127;47.780;9.606;2023-08-06T07:55:02;15.70;99.90
19930;DHT22;10127;47.780;9.606;2023-08-06T07:57:31;15.70;99.90
19930;DHT22;10127;47.780;9.606;2023-08-06T07:59:57;15.60;99.90
19930;DHT22;10127;47.780;9.606;2023-08-06T08:02:22;15.60;99.90
19930;DHT22;10127;47.780;9.606;2023-08-06T08:04:48;15.40;99.90
19930;DHT22;10127;47.780;9.606;2023-08-06T08:07:14;15.30;99.90
19930;DHT22;10127;47.780;9.606;2023-08-06T08:09:39;15.10;99.90
19930;DHT22;10127;47.780;9.606;2023-08-06T08:12:05;14.90;99.90
19930;DHT22;10127;47.780;9.606;2023-08-06T08:14:31;14.50;99.90
19930;DHT22;10127;47.780;9.606;2023-08-06T08:17:05;14.40;99.90
19930;DHT22;10127;47.780;9.606;2023-08-06T08:19:31;14.40;99.90
19930;DHT22;10127;47.780;9.606;2023-08-06T08:21:57;14.40;99.90
19930;DHT22;10127;47.780;9.606;2023-08-06T08:24:23;14.40;99.90
19930;DHT22;10127;47.780;9.606;2023-08-06T08:26:50;14.50;99.90
19930;DHT22;10127;47.780;9.606;2023-08-06T08:29:16;14.60;99.90
19930;DHT22;10127;47.780;9.606;2023-08-06T08:31:41;14.80;99.90
19930;DHT22;10127;47.780;9.606;2023-08-06T08:34:07;15.10;99.90
19930;DHT22;10127;47.780;9.606;2023-08-06T08:36:32;15.30;99.90
19930;DHT22;10127;47.780;9.606;2023-08-06T08:38:58;15.40;99.90
19930;DHT22;10127;47.780;9.606;2023-08-06T08:41:24;15.50;99.90
19930;DHT22;10127;47.780;9.606;2023-08-06T08:43:50;15.60;99.90
19930;DHT22;10127;47.780;9.606;2023-08-06T08:46:18;15.60;99.90
19930;DHT22;10127;47.780;9.606;2023-08-06T08:48:44;15.50;99.90
19930;DHT22;10127;47.780;9.606;2023-08-06T08:51:11;15.40;99.90
19930;DHT22;10127;47.780;9.606;2023-08-06T08:53:39;15.30;99.90
19930;DHT22;10127;47.780;9.606;2023-08-06T08:56:05;15.10;99.90
19930;DHT22;10127;47.780;9.606;2023-08-06T08:58:32;15.00;99.90
19930;DHT22;10127;47.780;9.606;2023-08-06T09:00:58;15.00;99.90
19930;DHT22;10127;47.780;9.606;2023-08-06T09:03:23;14.90;99.90
19930;DHT22;10127;47.780;9.606;2023-08-06T09:05:53;14.80;99.90
19930;DHT22;10127;47.780;9.606;2023-08-06T09:08:26;14.80;99.90
19930;DHT22;10127;47.780;9.606;2023-08-06T09:10:53;14.80;99.90
19930;DHT22;10127;47.780;9.606;2023-08-06T09:13:20;15.00;99.90
19930;DHT22;10127;47.780;9.606;2023-08-06T09:15:46;15.10;99.90
19930;DHT22;10127;47.780;9.606;2023-08-06T09:18:12;15.20;99.90
19930;DHT22;10127;47.780;9.606;2023-08-06T09:20:40;15.20;99.90
19930;DHT22;10127;47.780;9.606;2023-08-06T09:23:10;15.10;99.90
19930;DHT22;10127;47.780;9.606;2023-08-06T09:25:38;15.10;99.90
19930;DHT22;10127;47.780;9.606;2023-08-06T09:28:07;15.00;99.90
19930;DHT22;10127;47.780;9.606;2023-08-06T09:30:35;14.90;99.90
19930;DHT22;10127;47.780;9.606;2023-08-06T09:33:01;15.00;99.90
19930;DHT22;10127;47.780;9.606;2023-08-06T09:35:30;15.00;99.90
19930;DHT22;10127;47.780;9.606;2023-08-06T09:38:10;15.00;99.90
19930;DHT22;10127;47.780;9.606;2023-08-06T09:40:37;15.20;99.90
19930;DHT22;10127;47.780;9.606;2023-08-06T09:43:03;15.10;99.90
19930;DHT22;10127;47.780;9.606;2023-08-06T09:45:37;14.90;99.90
19930;DHT22;10127;47.780;9.606;2023-08-06T09:48:04;14.60;99.90
19930;DHT22;10127;47.780;9.606;2023-08-06T09:50:32;14.30;99.90
19930;DHT22;10127;47.780;9.606;2023-08-06T09:52:59;14.10;99.90
19930;DHT22;10127;47.780;9.606;2023-08-06T09:55:25;14.10;99.90
19930;DHT22;10127;47.780;9.606;2023-08-06T09:57:54;14.00;99.90
19930;DHT22;10127;47.780;9.606;2023-08-06T10:00:21;14.00;99.90
19930;DHT22;10127;47.780;9.606;2023-08-06T10:02:47;14.00;99.90
19930;DHT22;10127;47.780;9.606;2023-08-06T10:05:14;14.10;99.90
19930;DHT22;10127;47.780;9.606;2023-08-06T10:07:43;14.30;99.90
19930;DHT22;10127;47.780;9.606;2023-08-06T10:10:09;14.40;99.90
19930;DHT22;10127;47.780;9.606;2023-08-06T10:12:44;14.60;99.90
19930;DHT22;10127;47.780;9.606;2023-08-06T10:15:14;14.80;99.90
19930;DHT22;10127;47.780;9.606;2023-08-06T10:17:42;15.20;99.90
19930;DHT22;10127;47.780;9.606;2023-08-06T10:20:09;15.40;99.90
19930;DHT22;10127;47.780;9.606;2023-08-06T10:22:35;15.40;99.90
19930;DHT22;10127;47.780;9.606;2023-08-06T10:25:02;15.50;99.90
19930;DHT22;10127;47.780;9.606;2023-08-06T10:30:23;15.70;99.90
19930;DHT22;10127;47.780;9.606;2023-08-06T10:32:51;15.90;99.90
19930;DHT22;10127;47.780;9.606;2023-08-06T10:41:22;15.80;99.90
19930;DHT22;10127;47.780;9.606;2023-08-06T10:43:27;15.70;99.90
19930;DHT22;10127;47.780;9.606;2023-08-06T10:45:53;15.70;99.90
19930;DHT22;10127;47.780;9.606;2023-08-06T10:48:35;15.80;99.90
19930;DHT22;10127;47.780;9.606;2023-08-06T10:51:02;15.60;99.90
19930;DHT22;10127;47.780;9.606;2023-08-06T10:53:28;15.60;99.90
19930;DHT22;10127;47.780;9.606;2023-08-06T10:55:54;15.60;99.90
19930;DHT22;10127;47.780;9.606;2023-08-06T10:58:19;15.60;99.90
19930;DHT22;10127;47.780;9.606;2023-08-06T11:00:45;15.70;99.90
19930;DHT22;10127;47.780;9.606;2023-08-06T11:03:11;15.80;99.90
19930;DHT22;10127;47.780;9.606;2023-08-06T11:05:37;16.00;99.90
19930;DHT22;10127;47.780;9.606;2023-08-06T11:08:02;16.10;99.90
19930;DHT22;10127;47.780;9.606;2023-08-06T11:10:28;16.30;99.90
19930;DHT22;10127;47.780;9.606;2023-08-06T11:12:54;16.50;99.90
19930;DHT22;10127;47.780;9.606;2023-08-06T11:15:20;16.70;99.90
19930;DHT22;10127;47.780;9.606;2023-08-06T11:17:46;16.50;99.90
19930;DHT22;10127;47.780;9.606;2023-08-06T11:20:12;16.40;99.90
19930;DHT22;10127;47.780;9.606;2023-08-06T11:22:38;16.40;99.90
19930;DHT22;10127;47.780;9.606;2023-08-06T11:25:05;16.50;99.90
19930;DHT22;10127;47.780;9.606;2023-08-06T11:27:31;16.30;99.90
19930;DHT22;10127;47.780;9.606;2023-08-06T11:29:57;16.40;99.90
19930;DHT22;10127;47.780;9.606;2023-08-06T11:32:22;16.20;99.90
19930;DHT22;10127;47.780;9.606;2023-08-06T11:34:48;16.20;99.90
19930;DHT22;10127;47.780;9.606;2023-08-06T11:37:27;16.30;99.90
19930;DHT22;10127;47.780;9.606;2023-08-06T11:39:53;16.30;99.90
19930;DHT22;10127;47.780;9.606;2023-08-06T11:42:18;16.40;99.90
19930;DHT22;10127;47.780;9.606;2023-08-06T11:44:44;16.40;99.90
19930;DHT22;10127;47.780;9.606;2023-08-06T11:47:15;16.30;99.90
19930;DHT22;10127;47.780;9.606;2023-08-06T11:49:46;16.40;99.90
19930;DHT22;10127;47.780;9.606;2023-08-06T11:52:24;16.60;99.90
19930;DHT22;10127;47.780;9.606;2023-08-06T11:55:01;16.50;99.90
19930;DHT22;10127;47.780;9.606;2023-08-06T11:57:38;16.20;99.90
19930;DHT22;10127;47.780;9.606;2023-08-06T12:00:10;16.40;99.90
19930;DHT22;10127;47.780;9.606;2023-08-06T12:02:39;16.30;99.90
19930;DHT22;10127;47.780;9.606;2023-08-06T12:05:14;16.20;99.90
19930;DHT22;10127;47.780;9.606;2023-08-06T12:07:48;16.20;99.90
19930;DHT22;10127;47.780;9.606;2023-08-06T12:10:15;16.20;99.90
19930;DHT22;10127;47.780;9.606;2023-08-06T12:12:41;16.40;99.90
19930;DHT22;10127;47.780;9.606;2023-08-06T12:15:08;16.40;99.90
19930;DHT22;10127;47.780;9.606;2023-08-06T12:17:34;16.70;99.90
19930;DHT22;10127;47.780;9.606;2023-08-06T12:20:00;16.80;99.90
19930;DHT22;10127;47.780;9.606;2023-08-06T12:22:25;16.90;99.90
19930;DHT22;10127;47.780;9.606;2023-08-06T12:25:02;17.10;99.90
19930;DHT22;10127;47.780;9.606;2023-08-06T12:27:35;16.90;99.90
19930;DHT22;10127;47.780;9.606;2023-08-06T12:30:01;16.70;99.90
19930;DHT22;10127;47.780;9.606;2023-08-06T12:32:29;16.70;99.90
19930;DHT22;10127;47.780;9.606;2023-08-06T12:34:54;16.90;99.90
19930;DHT22;10127;47.780;9.606;2023-08-06T12:37:20;16.90;99.90
19930;DHT22;10127;47.780;9.606;2023-08-06T12:39:46;17.20;99.90
19930;DHT22;10127;47.780;9.606;2023-08-06T12:42:11;17.00;99.90
19930;DHT22;10127;47.780;9.606;2023-08-06T12:44:37;17.00;99.90
19930;DHT22;10127;47.780;9.606;2023-08-06T12:47:02;17.10;99.90
19930;DHT22;10127;47.780;9.606;2023-08-06T12:49:28;17.00;99.90
19930;DHT22;10127;47.780;9.606;2023-08-06T12:51:54;16.90;99.90
19930;DHT22;10127;47.780;9.606;2023-08-06T12:54:22;16.90;99.90
19930;DHT22;10127;47.780;9.606;2023-08-06T12:56:48;16.90;99.90
19930;DHT22;10127;47.780;9.606;2023-08-06T12:59:15;17.00;99.90
19930;DHT22;10127;47.780;9.606;2023-08-06T13:01:42;17.00;99.90
19930;DHT22;10127;47.780;9.606;2023-08-06T13:04:08;16.90;99.90
19930;DHT22;10127;47.780;9.606;2023-08-06T13:06:34;16.90;99.90
19930;DHT22;10127;47.780;9.606;2023-08-06T13:09:12;16.80;99.90
19930;DHT22;10127;47.780;9.606;2023-08-06T13:11:41;16.70;99.90
19930;DHT22;10127;47.780;9.606;2023-08-06T13:14:11;16.60;99.90
19930;DHT22;10127;47.780;9.606;2023-08-06T13:16:38;16.60;99.90
19930;DHT22;10127;47.780;9.606;2023-08-06T13:19:05;16.50;99.90
19930;DHT22;10127;47.780;9.606;2023-08-06T13:21:35;16.50;99.90
19930;DHT22;10127;47.780;9.606;2023-08-06T13:24:02;16.30;99.90
19930;DHT22;10127;47.780;9.606;2023-08-06T13:26:31;16.30;99.90
19930;DHT22;10127;47.780;9.606;2023-08-06T13:28:58;16.20;99.90
19930;DHT22;10127;47.780;9.606;2023-08-06T13:31:23;16.10;99.90
19930;DHT22;10127;47.780;9.606;2023-08-06T13:33:49;16.20;99.90
19930;DHT22;10127;47.780;9.606;2023-08-06T13:36:16;16.20;99.90
19930;DHT22;10127;47.780;9.606;2023-08-06T13:38:42;16.00;99.90
19930;DHT22;10127;47.780;9.606;2023-08-06T13:41:07;15.70;99.90
19930;DHT22;10127;47.780;9.606;2023-08-06T13:43:33;15.60;99.90
19930;DHT22;10127;47.780;9.606;2023-08-06T13:45:59;15.40;99.90
19930;DHT22;10127;47.780;9.606;2023-08-06T13:48:24;15.20;99.90
19930;DHT22;10127;47.780;9.606;2023-08-06T13:50:50;15.10;99.90
19930;DHT22;10127;47.780;9.606;2023-08-06T13:53:16;15.10;99.90
19930;DHT22;10127;47.780;9.606;2023-08-06T13:55:41;15.10;99.90
19930;DHT22;10127;47.780;9.606;2023-08-06T13:58:07;15.10;99.90
19930;DHT22;10127;47.780;9.606;2023-08-06T14:00:32;15.20;99.90
19930;DHT22;10127;47.780;9.606;2023-08-06T14:02:58;15.20;99.90
19930;DHT22;10127;47.780;9.606;2023-08-06T14:05:24;15.20;99.90
19930;DHT22;10127;47.780;9.606;2023-08-06T14:07:49;15.10;99.90
19930;DHT22;10127;47.780;9.606;2023-08-06T14:10:15;15.20;99.90
19930;DHT22;10127;47.780;9.606;2023-08-06T14:12:41;15.30;99.90
19930;DHT22;10127;47.780;9.606;2023-08-06T14:15:07;15.40;99.90
19930;DHT22;10127;47.780;9.606;2023-08-06T14:17:32;15.50;99.90
19930;DHT22;10127;47.780;9.606;2023-08-06T14:20:06;15.70;99.90
19930;DHT22;10127;47.780;9.606;2023-08-06T14:22:45;16.00;99.90
19930;DHT22;10127;47.780;9.606;2023-08-06T14:25:11;16.40;99.90
19930;DHT22;10127;47.780;9.606;2023-08-06T14:27:36;16.70;99.90
19930;DHT22;10127;47.780;9.606;2023-08-06T14:30:05;17.20;99.90
19930;DHT22;10127;47.780;9.606;2023-08-06T14:32:32;17.40;99.90
19930;DHT22;10127;47.780;9.606;2023-08-06T14:34:57;17.30;99.90
19930;DHT22;10127;47.780;9.606;2023-08-06T14:37:24;17.10;99.90
19930;DHT22;10127;47.780;9.606;2023-08-06T14:39:50;17.40;99.90
19930;DHT22;10127;47.780;9.606;2023-08-06T14:42:15;17.50;99.90
19930;DHT22;10127;47.780;9.606;2023-08-06T14:44:41;17.70;99.90
19930;DHT22;10127;47.780;9.606;2023-08-06T14:47:06;17.80;99.90
19930;DHT22;10127;47.780;9.606;2023-08-06T14:49:32;17.60;99.90
19930;DHT22;10127;47.780;9.606;2023-08-06T14:51:58;17.60;99.90
19930;DHT22;10127;47.780;9.606;2023-08-06T14:54:25;17.40;99.90
19930;DHT22;10127;47.780;9.606;2023-08-06T14:56:52;17.20;99.90
19930;DHT22;10127;47.780;9.606;2023-08-06T14:59:17;17.00;99.90
19930;DHT22;10127;47.780;9.606;2023-08-06T15:01:43;16.70;99.90
19930;DHT22;10127;47.780;9.606;2023-08-06T15:04:08;16.50;99.90
19930;DHT22;10127;47.780;9.606;2023-08-06T15:06:34;16.40;99.90
19930;DHT22;10127;47.780;9.606;2023-08-06T15:08:59;16.20;99.90
19930;DHT22;10127;47.780;9.606;2023-08-06T15:11:26;15.90;99.90
19930;DHT22;10127;47.780;9.606;2023-08-06T15:13:52;15.60;99.90
19930;DHT22;10127;47.780;9.606;2023-08-06T15:16:18;15.20;99.90
19930;DHT22;10127;47.780;9.606;2023-08-06T15:18:43;14.40;99.90
19930;DHT22;10127;47.780;9.606;2023-08-06T15:21:09;14.20;99.90
19930;DHT22;10127;47.780;9.606;2023-08-06T15:23:35;14.50;99.90
19930;DHT22;10127;47.780;9.606;2023-08-06T15:26:01;14.60;99.90
19930;DHT22;10127;47.780;9.606;2023-08-06T15:28:27;14.90;99.90
19930;DHT22;10127;47.780;9.606;2023-08-06T15:30:55;15.20;99.90
19930;DHT22;10127;47.780;9.606;2023-08-06T15:33:21;15.60;99.90
19930;DHT22;10127;47.780;9.606;2023-08-06T15:35:47;15.90;99.90